createdAt,value
2022-09-09T00:00:36.587Z,21.67
2022-09-09T00:03:14.274Z,21.67
2022-09-09T00:05:53.720Z,21.66
2022-09-09T00:08:26.996Z,21.68
2022-09-09T00:11:03.861Z,21.65
2022-09-09T00:13:41.936Z,21.63
2022-09-09T00:16:20.211Z,21.60
2022-09-09T00:18:59.740Z,21.57
2022-09-09T00:21:35.338Z,21.58
2022-09-09T00:24:14.768Z,21.54
2022-09-09T00:26:47.485Z,21.53
2022-09-09T00:29:27.879Z,21.50
2022-09-09T00:32:00.444Z,21.50
2022-09-09T00:34:30.133Z,21.49
2022-09-09T00:36:59.613Z,21.49
2022-09-09T00:39:42.904Z,21.45
2022-09-09T00:42:18.591Z,21.46
2022-09-09T00:45:01.911Z,21.43
2022-09-09T00:47:47.122Z,21.42
2022-09-09T00:50:35.797Z,21.41
2022-09-09T00:53:26.525Z,21.41
2022-09-09T00:56:08.299Z,21.42
2022-09-09T00:58:36.749Z,21.43
2022-09-09T01:01:12.312Z,21.43
2022-09-09T01:03:48.783Z,21.46
2022-09-09T01:06:27.222Z,21.44
2022-09-09T01:09:16.948Z,21.43
2022-09-09T01:11:57.734Z,21.44
2022-09-09T01:14:47.131Z,21.43
2022-09-09T01:17:23.970Z,21.48
2022-09-09T01:20:05.430Z,21.48
2022-09-09T01:22:42.299Z,21.48
2022-09-09T01:25:30.597Z,21.46
2022-09-09T01:28:04.146Z,21.47
2022-09-09T01:30:35.279Z,21.47
2022-09-09T01:33:04.331Z,21.45
2022-09-09T01:35:45.190Z,21.45
2022-09-09T01:38:14.272Z,21.46
2022-09-09T01:40:42.975Z,21.44
2022-09-09T01:43:13.127Z,21.43
2022-09-09T01:45:43.714Z,21.43
2022-09-09T01:48:12.208Z,21.44
2022-09-09T01:50:40.766Z,21.44
2022-09-09T01:53:09.534Z,21.43
2022-09-09T01:55:42.454Z,21.41
2022-09-09T01:58:30.413Z,21.39
2022-09-09T02:01:08.341Z,21.39
2022-09-09T02:03:38.340Z,21.39
2022-09-09T02:06:20.756Z,21.37
2022-09-09T02:08:52.110Z,21.38
2022-09-09T02:11:23.771Z,21.38
2022-09-09T02:13:57.617Z,21.36
2022-09-09T02:16:31.059Z,21.36
2022-09-09T02:19:07.041Z,21.35
2022-09-09T02:21:37.812Z,21.36
2022-09-09T02:24:11.373Z,21.36
2022-09-09T02:26:46.499Z,21.36
2022-09-09T02:29:20.988Z,21.35
2022-09-09T02:31:51.790Z,21.37
2022-09-09T02:34:25.232Z,21.35
2022-09-09T02:36:57.666Z,21.34
2022-09-09T02:39:26.008Z,21.33
2022-09-09T02:41:54.875Z,21.30
2022-09-09T02:44:24.583Z,21.27
2022-09-09T02:47:18.652Z,21.24
2022-09-09T02:50:03.291Z,21.25
2022-09-09T02:52:45.219Z,21.26
2022-09-09T02:55:24.686Z,21.25
2022-09-09T02:57:54.126Z,21.29
2022-09-09T03:00:29.164Z,21.27
2022-09-09T03:02:58.047Z,21.30
2022-09-09T03:05:27.287Z,21.32
2022-09-09T03:07:55.680Z,21.33
2022-09-09T03:10:24.216Z,21.30
2022-09-09T03:12:52.586Z,21.30
2022-09-09T03:15:21.662Z,21.28
2022-09-09T03:17:52.104Z,21.27
2022-09-09T03:20:20.597Z,21.24
2022-09-09T03:22:48.997Z,21.23
2022-09-09T03:25:17.568Z,21.20
2022-09-09T03:27:45.913Z,21.19
2022-09-09T03:30:15.462Z,21.17
2022-09-09T03:32:48.326Z,21.16
2022-09-09T03:35:19.129Z,21.14
2022-09-09T03:37:47.605Z,21.15
2022-09-09T03:40:16.715Z,21.13
2022-09-09T03:42:45.108Z,21.12
2022-09-09T03:45:13.508Z,21.11
2022-09-09T03:47:41.932Z,21.10
2022-09-09T03:50:13.824Z,21.09
2022-09-09T03:52:44.785Z,21.08
2022-09-09T03:55:13.293Z,21.07
2022-09-09T03:57:41.610Z,21.05
2022-09-09T04:00:12.939Z,21.01
2022-09-09T04:02:41.265Z,20.98
2022-09-09T04:05:11.048Z,20.96
2022-09-09T04:07:39.600Z,20.93
2022-09-09T04:10:10.992Z,20.89
2022-09-09T04:12:39.343Z,20.86
2022-09-09T04:15:09.486Z,20.83
2022-09-09T04:17:38.368Z,20.80
2022-09-09T04:20:08.719Z,20.77
2022-09-09T04:22:37.023Z,20.74
2022-09-09T04:25:06.780Z,20.70
2022-09-09T04:27:36.513Z,20.67
2022-09-09T04:30:06.223Z,20.65
2022-09-09T04:32:35.420Z,20.62
2022-09-09T04:35:03.870Z,20.60
2022-09-09T04:37:32.231Z,20.59
2022-09-09T04:40:03.840Z,20.58
2022-09-09T04:42:32.213Z,20.57
2022-09-09T04:45:02.627Z,20.55
2022-09-09T04:47:31.057Z,20.55
2022-09-09T04:49:59.419Z,20.54
2022-09-09T04:52:27.704Z,20.53
2022-09-09T04:54:56.210Z,20.53
2022-09-09T04:57:25.288Z,20.53
2022-09-09T04:59:53.601Z,20.53
2022-09-09T05:02:23.341Z,20.53
2022-09-09T05:04:51.748Z,20.54
2022-09-09T05:07:20.045Z,20.55
2022-09-09T05:09:50.342Z,20.57
2022-09-09T05:12:18.724Z,20.60
2022-09-09T05:14:47.060Z,20.64
2022-09-09T05:17:17.380Z,20.68
2022-09-09T05:19:47.222Z,20.68
2022-09-09T05:22:15.548Z,20.73
2022-09-09T05:24:43.891Z,20.75
2022-09-09T05:27:16.202Z,20.77
2022-09-09T05:29:45.702Z,20.79
2022-09-09T05:32:15.622Z,20.83
2022-09-09T05:34:44.031Z,20.85
2022-09-09T05:37:13.738Z,20.89
2022-09-09T05:39:42.158Z,20.97
2022-09-09T05:42:10.549Z,21.03
2022-09-09T05:44:39.318Z,21.11
2022-09-09T05:47:09.143Z,21.19
2022-09-09T05:49:37.669Z,21.29
2022-09-09T05:52:07.184Z,21.36
2022-09-09T05:54:38.598Z,21.43
2022-09-09T05:57:07.068Z,21.52
2022-09-09T05:59:35.358Z,21.57
2022-09-09T06:02:03.865Z,21.62
2022-09-09T06:04:32.390Z,21.67
2022-09-09T06:07:00.769Z,21.73
2022-09-09T06:09:29.419Z,21.77
2022-09-09T06:11:59.768Z,21.78
2022-09-09T06:14:28.423Z,21.80
2022-09-09T06:16:57.743Z,21.82
2022-09-09T06:19:27.939Z,21.85
2022-09-09T06:21:56.254Z,21.94
2022-09-09T06:24:24.794Z,22.04
2022-09-09T06:26:53.157Z,22.15
2022-09-09T06:29:23.268Z,22.25
2022-09-09T06:31:52.070Z,22.38
2022-09-09T06:34:20.468Z,22.52
2022-09-09T06:36:48.813Z,22.67
2022-09-09T06:39:17.103Z,22.83
2022-09-09T06:41:45.419Z,23.03
2022-09-09T06:44:13.843Z,23.21
2022-09-09T06:46:44.483Z,23.37
2022-09-09T06:49:12.991Z,23.54
2022-09-09T06:51:44.084Z,23.65
2022-09-09T06:54:13.612Z,23.74
2022-09-09T06:56:44.614Z,23.82
2022-09-09T06:59:14.084Z,23.91
2022-09-09T07:01:45.804Z,24.01
2022-09-09T07:04:14.662Z,24.12
2022-09-09T07:06:45.434Z,24.23
2022-09-09T07:09:17.245Z,24.34
2022-09-09T07:11:48.207Z,24.46
2022-09-09T07:14:17.902Z,24.61
2022-09-09T07:16:48.101Z,24.72
2022-09-09T07:19:16.784Z,24.80
2022-09-09T07:21:46.223Z,24.86
2022-09-09T07:24:14.581Z,24.93
2022-09-09T07:26:43.131Z,24.95
2022-09-09T07:29:19.876Z,24.97
2022-09-09T07:31:50.394Z,24.98
2022-09-09T07:34:23.013Z,24.98
2022-09-09T07:36:51.401Z,25.01
2022-09-09T07:39:19.831Z,25.05
2022-09-09T07:41:50.158Z,25.13
2022-09-09T07:44:22.382Z,25.22
2022-09-09T07:46:52.375Z,25.32
2022-09-09T07:49:27.420Z,25.39
2022-09-09T07:51:58.365Z,25.46
2022-09-09T07:54:27.269Z,25.56
2022-09-09T07:56:55.932Z,25.67
2022-09-09T07:59:25.410Z,25.84
2022-09-09T08:01:55.945Z,26.02
2022-09-09T08:04:27.159Z,26.16
2022-09-09T08:06:59.397Z,26.30
2022-09-09T08:09:30.136Z,26.45
2022-09-09T08:11:59.744Z,26.60
2022-09-09T08:14:28.811Z,26.80
2022-09-09T08:16:59.225Z,26.96
2022-09-09T08:19:30.355Z,27.15
2022-09-09T08:21:58.827Z,27.36
2022-09-09T08:24:27.234Z,27.55
2022-09-09T08:26:55.779Z,27.75
2022-09-09T08:29:24.501Z,27.95
2022-09-09T08:31:55.464Z,28.14
2022-09-09T08:34:27.971Z,28.29
2022-09-09T08:36:56.932Z,28.42
2022-09-09T08:39:25.515Z,28.46
2022-09-09T08:42:36.077Z,28.47
2022-09-09T08:45:26.946Z,28.51
2022-09-09T08:48:26.797Z,28.53
2022-09-09T08:51:02.955Z,28.63
2022-09-09T08:53:40.314Z,28.70
2022-09-09T08:56:16.321Z,28.76
2022-09-09T08:58:50.910Z,28.82
2022-09-09T09:01:42.267Z,28.89
2022-09-09T09:04:30.291Z,28.89
2022-09-09T09:07:12.752Z,28.88
2022-09-09T09:09:50.587Z,28.91
2022-09-09T09:12:23.802Z,28.98
2022-09-09T09:14:52.657Z,29.06
2022-09-09T09:17:23.721Z,29.12
2022-09-09T09:19:52.742Z,29.22
2022-09-09T09:22:25.570Z,29.26
2022-09-09T09:24:56.787Z,29.30
2022-09-09T09:27:35.354Z,29.30
2022-09-09T09:30:25.616Z,29.34
2022-09-09T09:33:02.685Z,29.46
2022-09-09T09:35:31.216Z,29.63
2022-09-09T09:40:54.121Z,29.88
2022-09-09T09:43:28.640Z,29.97
2022-09-09T09:46:17.762Z,30.08
2022-09-09T09:48:47.412Z,30.20
2022-09-09T09:51:26.188Z,30.29
2022-09-09T09:53:56.918Z,30.40
2022-09-09T09:56:31.547Z,30.42
2022-09-09T09:59:03.665Z,30.45
2022-09-09T10:01:38.396Z,30.45
2022-09-09T10:04:21.225Z,30.40
2022-09-09T10:06:49.954Z,30.42
2022-09-09T10:09:27.408Z,30.41
2022-09-09T10:12:06.310Z,30.48
2022-09-09T10:14:42.174Z,30.63
2022-09-09T10:17:24.786Z,30.77
2022-09-09T10:20:12.857Z,30.92
2022-09-09T10:22:47.245Z,31.11
2022-09-09T10:25:41.115Z,31.25
2022-09-09T10:28:41.909Z,31.37
2022-09-09T10:31:23.910Z,31.45
2022-09-09T10:34:02.011Z,31.56
2022-09-09T10:36:30.900Z,31.62
2022-09-09T10:39:05.249Z,31.63
2022-09-09T10:41:51.617Z,31.66
2022-09-09T10:44:52.634Z,31.74
2022-09-09T10:47:52.058Z,31.90
2022-09-09T10:51:00.535Z,32.09
2022-09-09T10:53:55.696Z,32.31
2022-09-09T10:56:26.517Z,32.60
2022-09-09T10:59:02.369Z,32.82
2022-09-09T11:01:39.636Z,33.03
2022-09-09T11:04:15.912Z,33.13
2022-09-09T11:06:53.449Z,33.27
2022-09-09T11:09:27.037Z,33.35
2022-09-09T11:11:57.530Z,33.43
2022-09-09T11:14:36.811Z,33.38
2022-09-09T11:17:13.092Z,33.34
2022-09-09T11:19:44.694Z,33.28
2022-09-09T11:22:26.597Z,33.27
2022-09-09T11:25:01.249Z,33.35
2022-09-09T11:27:42.485Z,33.40
2022-09-09T11:30:55.521Z,33.31
2022-09-09T11:33:59.547Z,33.25
2022-09-09T11:36:58.502Z,33.31
2022-09-09T11:39:50.054Z,33.40
2022-09-09T11:42:22.586Z,33.51
2022-09-09T11:44:51.203Z,33.64
2022-09-09T11:47:30.396Z,33.87
2022-09-09T11:50:33.491Z,34.17
2022-09-09T11:53:24.869Z,34.54
2022-09-09T11:56:15.678Z,34.78
2022-09-09T11:58:56.272Z,34.91
2022-09-09T12:01:40.076Z,34.92
2022-09-09T12:04:38.813Z,35.04
2022-09-09T12:07:33.914Z,35.18
2022-09-09T12:10:08.075Z,35.29
2022-09-09T12:12:43.172Z,35.45
2022-09-09T12:15:30.994Z,35.60
2022-09-09T12:18:03.956Z,35.92
2022-09-09T12:20:39.914Z,36.33
2022-09-09T12:23:33.201Z,36.70
2022-09-09T12:26:13.454Z,37.11
2022-09-09T12:28:54.123Z,37.23
2022-09-09T12:31:29.473Z,37.31
2022-09-09T12:34:04.751Z,37.53
2022-09-09T12:36:35.880Z,37.66
2022-09-09T12:39:20.151Z,37.63
2022-09-09T12:41:58.423Z,37.38
2022-09-09T12:44:29.124Z,37.02
2022-09-09T12:47:00.787Z,36.69
2022-09-09T12:49:35.902Z,36.39
2022-09-09T12:52:10.960Z,36.09
2022-09-09T12:54:39.895Z,35.83
2022-09-09T12:57:14.522Z,35.54
2022-09-09T12:59:46.171Z,35.23
2022-09-09T13:02:24.087Z,34.87
2022-09-09T13:04:57.056Z,34.50
2022-09-09T13:07:27.470Z,34.10
2022-09-09T13:09:55.905Z,33.72
2022-09-09T13:12:26.036Z,33.42
2022-09-09T13:14:58.248Z,33.10
2022-09-09T13:17:30.154Z,32.82
2022-09-09T13:19:59.363Z,32.56
2022-09-09T13:22:35.406Z,32.29
2022-09-09T13:25:16.466Z,32.05
2022-09-09T13:27:55.015Z,31.80
2022-09-09T13:30:27.062Z,31.63
2022-09-09T13:33:25.716Z,31.41
2022-09-09T13:35:58.350Z,31.29
2022-09-09T13:38:30.319Z,31.13
2022-09-09T13:41:02.984Z,31.02
2022-09-09T13:43:36.067Z,30.91
2022-09-09T13:46:08.845Z,30.82
2022-09-09T13:48:37.354Z,30.76
2022-09-09T13:51:07.010Z,30.67
2022-09-09T13:53:36.920Z,30.59
2022-09-09T13:56:05.417Z,30.52
2022-09-09T13:58:33.884Z,30.43
2022-09-09T14:01:02.314Z,30.33
2022-09-09T14:03:31.203Z,30.27
2022-09-09T14:05:59.955Z,30.19
2022-09-09T14:08:38.205Z,30.10
2022-09-09T14:11:13.255Z,29.97
2022-09-09T14:13:41.737Z,29.86
2022-09-09T14:16:10.805Z,29.74
2022-09-09T14:18:40.023Z,29.59
2022-09-09T14:21:09.945Z,29.45
2022-09-09T14:23:39.209Z,29.28
2022-09-09T14:26:09.705Z,29.09
2022-09-09T14:28:56.724Z,28.81
2022-09-09T14:31:26.010Z,28.42
2022-09-09T14:33:54.703Z,28.12
2022-09-09T14:36:23.947Z,27.84
2022-09-09T14:38:53.011Z,27.60
2022-09-09T14:41:24.484Z,27.39
2022-09-09T14:43:53.312Z,27.25
2022-09-09T14:46:22.858Z,27.14
2022-09-09T14:48:52.045Z,27.02
2022-09-09T14:51:23.251Z,26.93
2022-09-09T14:53:55.121Z,26.86
2022-09-09T14:56:27.316Z,26.83
2022-09-09T14:58:57.210Z,26.83
2022-09-09T15:01:28.424Z,26.80
2022-09-09T15:04:00.014Z,26.80
2022-09-09T15:06:31.228Z,26.79
2022-09-09T15:09:00.102Z,26.78
2022-09-09T15:11:33.119Z,26.73
2022-09-09T15:14:01.590Z,26.70
2022-09-09T15:16:31.336Z,26.66
2022-09-09T15:19:02.121Z,26.63
2022-09-09T15:21:34.046Z,26.61
2022-09-09T15:24:02.720Z,26.60
2022-09-09T15:26:32.892Z,26.59
2022-09-09T15:29:01.722Z,26.56
2022-09-09T15:31:32.932Z,26.54
2022-09-09T15:34:03.785Z,26.52
2022-09-09T15:36:35.344Z,26.51
2022-09-09T15:39:10.729Z,26.48
2022-09-09T15:41:40.833Z,26.46
2022-09-09T15:44:11.290Z,26.45
2022-09-09T15:46:41.838Z,26.40
2022-09-09T15:49:12.580Z,26.38
2022-09-09T15:51:44.447Z,26.32
2022-09-09T15:54:15.265Z,26.29
2022-09-09T15:56:46.289Z,26.23
2022-09-09T15:59:15.882Z,26.16
2022-09-09T16:01:45.026Z,26.08
2022-09-09T16:04:13.763Z,26.00
2022-09-09T16:06:42.281Z,25.94
2022-09-09T16:09:11.329Z,25.90
2022-09-09T16:11:41.452Z,25.86
2022-09-09T16:14:12.111Z,25.82
2022-09-09T16:16:40.506Z,25.78
2022-09-09T16:19:12.590Z,25.74
2022-09-09T16:21:43.737Z,25.73
2022-09-09T16:24:14.893Z,25.68
2022-09-09T16:26:46.723Z,25.66
2022-09-09T16:29:18.685Z,25.62
2022-09-09T16:31:49.155Z,25.58
2022-09-09T16:34:19.698Z,25.53
2022-09-09T16:36:49.521Z,25.45
2022-09-09T16:39:19.800Z,25.37
2022-09-09T16:41:50.186Z,25.30
2022-09-09T16:44:20.512Z,25.25
2022-09-09T16:46:56.671Z,25.20
2022-09-09T16:49:26.637Z,25.14
2022-09-09T16:51:55.169Z,25.10
2022-09-09T16:54:24.504Z,25.06
2022-09-09T16:56:55.414Z,25.02
2022-09-09T16:59:25.778Z,24.99
2022-09-09T17:01:55.570Z,25.00
2022-09-09T17:04:27.610Z,24.99
2022-09-09T17:06:58.339Z,24.95
2022-09-09T17:09:30.363Z,24.87
2022-09-09T17:11:59.515Z,24.76
2022-09-09T17:14:32.165Z,24.62
2022-09-09T17:17:18.951Z,24.48
2022-09-09T17:19:51.585Z,24.36
2022-09-09T17:22:21.249Z,24.29
2022-09-09T17:24:49.760Z,24.25
2022-09-09T17:27:18.116Z,24.19
2022-09-09T17:29:47.946Z,24.12
2022-09-09T17:32:16.407Z,24.05
2022-09-09T17:34:44.878Z,23.94
2022-09-09T17:37:14.252Z,23.79
2022-09-09T17:39:42.721Z,23.60
2022-09-09T17:42:11.192Z,23.43
2022-09-09T17:44:40.029Z,23.28
2022-09-09T17:47:10.693Z,23.15
2022-09-09T17:49:39.521Z,22.98
2022-09-09T17:52:08.804Z,22.78
2022-09-09T17:54:37.224Z,22.59
2022-09-09T17:57:06.888Z,22.41
2022-09-09T17:59:35.348Z,22.25
2022-09-09T18:02:05.621Z,22.14
2022-09-09T18:04:37.138Z,22.01
2022-09-09T18:07:06.947Z,21.91
2022-09-09T18:09:35.289Z,21.84
2022-09-09T18:12:03.974Z,21.79
2022-09-09T18:14:34.139Z,21.75
2022-09-09T18:17:04.193Z,21.72
2022-09-09T18:19:35.663Z,21.71
2022-09-09T18:22:07.011Z,21.72
2022-09-09T18:24:36.541Z,21.74
2022-09-09T18:27:05.390Z,21.75
2022-09-09T18:29:34.571Z,21.76
2022-09-09T18:32:03.791Z,21.77
2022-09-09T18:34:32.470Z,21.75
2022-09-09T18:37:02.390Z,21.73
2022-09-09T18:39:32.186Z,21.71
2022-09-09T18:42:02.880Z,21.67
2022-09-09T18:44:34.625Z,21.63
2022-09-09T18:47:03.973Z,21.61
2022-09-09T18:49:33.551Z,21.57
2022-09-09T18:52:04.691Z,21.52
2022-09-09T18:54:34.987Z,21.50
2022-09-09T18:57:06.122Z,21.48
2022-09-09T18:59:34.904Z,21.49
2022-09-09T19:02:03.632Z,21.47
2022-09-09T19:04:33.365Z,21.48
2022-09-09T19:07:05.674Z,21.46
2022-09-09T19:09:36.817Z,21.45
2022-09-09T19:12:06.520Z,21.45
2022-09-09T19:14:35.592Z,21.45
2022-09-09T19:17:04.477Z,21.46
2022-09-09T19:19:34.522Z,21.46
2022-09-09T19:22:09.263Z,21.46
2022-09-09T19:24:37.928Z,21.47
2022-09-09T19:27:08.022Z,21.47
2022-09-09T19:29:40.183Z,21.48
2022-09-09T19:34:59.587Z,21.47
2022-09-09T19:37:29.558Z,21.45
2022-09-09T19:39:58.037Z,21.42
2022-09-09T19:42:26.994Z,21.38
2022-09-09T19:44:56.910Z,21.36
2022-09-09T19:47:25.626Z,21.37
2022-09-09T19:49:53.987Z,21.37
2022-09-09T19:52:25.532Z,21.35
2022-09-09T19:54:55.818Z,21.31
2022-09-09T19:57:24.254Z,21.30
2022-09-09T19:59:52.623Z,21.26
2022-09-09T20:02:21.304Z,21.25
2022-09-09T20:04:49.892Z,21.21
2022-09-09T20:07:19.211Z,21.19
2022-09-09T20:09:47.548Z,21.17
2022-09-09T20:12:18.039Z,21.16
2022-09-09T20:14:46.386Z,21.17
2022-09-09T20:17:14.846Z,21.18
2022-09-09T20:19:43.287Z,21.22
2022-09-09T20:22:12.176Z,21.26
2022-09-09T20:24:40.510Z,21.29
2022-09-09T20:27:09.534Z,21.31
2022-09-09T20:29:39.634Z,21.30
2022-09-09T20:32:08.722Z,21.27
2022-09-09T20:34:37.124Z,21.25
2022-09-09T20:37:05.998Z,21.26
2022-09-09T20:39:35.760Z,21.23
2022-09-09T20:42:04.628Z,21.20
2022-09-09T20:44:33.211Z,21.18
2022-09-09T20:47:06.648Z,21.14
2022-09-09T20:49:36.284Z,21.07
2022-09-09T20:52:05.112Z,21.02
2022-09-09T20:54:35.264Z,20.97
2022-09-09T20:57:04.207Z,20.94
2022-09-09T20:59:32.668Z,20.93
2022-09-09T21:02:03.424Z,20.90
2022-09-09T21:04:32.137Z,20.87
2022-09-09T21:07:00.592Z,20.85
2022-09-09T21:09:28.972Z,20.83
2022-09-09T21:11:57.335Z,20.79
2022-09-09T21:14:27.434Z,20.77
2022-09-09T21:16:55.809Z,20.75
2022-09-09T21:19:27.526Z,20.74
2022-09-09T21:21:57.155Z,20.76
2022-09-09T21:24:25.559Z,20.75
2022-09-09T21:26:55.301Z,20.74
2022-09-09T21:29:24.258Z,20.71
2022-09-09T21:31:55.908Z,20.69
2022-09-09T21:34:25.609Z,20.68
2022-09-09T21:36:54.058Z,20.68
2022-09-09T21:39:22.970Z,20.65
2022-09-09T21:41:51.404Z,20.64
2022-09-09T21:44:21.079Z,20.61
2022-09-09T21:46:49.425Z,20.60
2022-09-09T21:49:17.762Z,20.58
2022-09-09T21:51:48.084Z,20.56
2022-09-09T21:54:17.341Z,20.56
2022-09-09T21:56:45.860Z,20.56
2022-09-09T21:59:14.233Z,20.56
2022-09-09T22:01:43.208Z,20.55
2022-09-09T22:04:11.677Z,20.54
2022-09-09T22:06:40.063Z,20.53
2022-09-09T22:09:09.872Z,20.53
2022-09-09T22:11:38.191Z,20.54
2022-09-09T22:14:06.624Z,20.54
2022-09-09T22:16:35.051Z,20.56
2022-09-09T22:19:03.613Z,20.59
2022-09-09T22:21:34.092Z,20.60
2022-09-09T22:24:05.348Z,20.61
2022-09-09T22:26:37.685Z,20.63
2022-09-09T22:29:07.451Z,20.65
2022-09-09T22:31:37.143Z,20.66
2022-09-09T22:34:06.209Z,20.68
2022-09-09T22:36:36.831Z,20.72
2022-09-09T22:39:05.958Z,20.75
2022-09-09T22:41:35.672Z,20.78
2022-09-09T22:44:04.700Z,20.80
2022-09-09T22:46:33.095Z,20.81
2022-09-09T22:49:03.428Z,20.82
2022-09-09T22:51:34.791Z,20.82
2022-09-09T22:54:03.393Z,20.82
2022-09-09T22:56:31.837Z,20.81
2022-09-09T22:59:02.172Z,20.80
2022-09-09T23:01:30.683Z,20.79
2022-09-09T23:04:01.758Z,20.81
2022-09-09T23:06:31.770Z,20.85
2022-09-09T23:09:02.270Z,20.88
2022-09-09T23:11:33.792Z,20.89
2022-09-09T23:14:06.685Z,20.89
2022-09-09T23:16:39.844Z,20.90
2022-09-09T23:19:10.922Z,20.92
2022-09-09T23:21:42.189Z,20.94
2022-09-09T23:24:13.917Z,20.98
2022-09-09T23:26:43.638Z,21.02
2022-09-09T23:29:14.786Z,21.06
2022-09-09T23:31:45.502Z,21.11
2022-09-09T23:34:14.795Z,21.16
2022-09-09T23:36:43.791Z,21.20
2022-09-09T23:39:14.225Z,21.21
2022-09-09T23:41:42.852Z,21.25
2022-09-09T23:44:13.678Z,21.27
2022-09-09T23:46:42.331Z,21.31
2022-09-09T23:49:11.018Z,21.35
2022-09-09T23:51:39.945Z,21.35
2022-09-09T23:54:09.861Z,21.34
2022-09-09T23:56:42.400Z,21.32
2022-09-09T23:59:12.310Z,21.32
